sensor_id;sensor_type;location;lat;lon;timestamp;P1;durP1;ratioP1;P2;durP2;ratioP2
62616;SDS011;62539;51.190;6.808;2023-12-04T00:01:52;7.50;;;3.55;;
62616;SDS011;62539;51.190;6.808;2023-12-04T00:04:18;7.13;;;3.60;;
62616;SDS011;62539;51.190;6.808;2023-12-04T00:06:44;8.63;;;3.92;;
62616;SDS011;62539;51.190;6.808;2023-12-04T00:09:09;5.70;;;3.33;;
62616;SDS011;62539;51.190;6.808;2023-12-04T00:11:35;6.15;;;3.72;;
62616;SDS011;62539;51.190;6.808;2023-12-04T00:14:00;6.63;;;3.28;;
62616;SDS011;62539;51.190;6.808;2023-12-04T00:16:26;5.93;;;3.15;;
62616;SDS011;62539;51.190;6.808;2023-12-04T00:18:52;9.02;;;3.58;;
62616;SDS011;62539;51.190;6.808;2023-12-04T00:21:17;10.07;;;3.70;;
62616;SDS011;62539;51.190;6.808;2023-12-04T00:23:42;6.10;;;3.65;;
62616;SDS011;62539;51.190;6.808;2023-12-04T00:26:08;5.28;;;3.45;;
62616;SDS011;62539;51.190;6.808;2023-12-04T00:28:36;7.22;;;3.78;;
62616;SDS011;62539;51.190;6.808;2023-12-04T00:31:02;7.32;;;3.42;;
62616;SDS011;62539;51.190;6.808;2023-12-04T00:33:28;8.52;;;3.40;;
62616;SDS011;62539;51.190;6.808;2023-12-04T00:35:54;7.88;;;3.15;;
62616;SDS011;62539;51.190;6.808;2023-12-04T00:38:19;6.82;;;3.35;;
62616;SDS011;62539;51.190;6.808;2023-12-04T00:40:44;5.57;;;3.55;;
62616;SDS011;62539;51.190;6.808;2023-12-04T00:43:10;6.15;;;3.30;;
62616;SDS011;62539;51.190;6.808;2023-12-04T00:45:35;7.90;;;3.58;;
62616;SDS011;62539;51.190;6.808;2023-12-04T00:48:02;4.72;;;3.40;;
62616;SDS011;62539;51.190;6.808;2023-12-04T00:50:28;7.45;;;3.20;;
62616;SDS011;62539;51.190;6.808;2023-12-04T00:52:53;6.18;;;3.28;;
62616;SDS011;62539;51.190;6.808;2023-12-04T00:55:19;4.75;;;2.88;;
62616;SDS011;62539;51.190;6.808;2023-12-04T00:57:45;3.65;;;3.00;;
62616;SDS011;62539;51.190;6.808;2023-12-04T01:00:10;6.90;;;3.15;;
62616;SDS011;62539;51.190;6.808;2023-12-04T01:02:36;4.85;;;3.13;;
62616;SDS011;62539;51.190;6.808;2023-12-04T01:05:02;6.07;;;3.30;;
62616;SDS011;62539;51.190;6.808;2023-12-04T01:07:28;7.93;;;3.40;;
62616;SDS011;62539;51.190;6.808;2023-12-04T01:09:54;7.28;;;3.33;;
62616;SDS011;62539;51.190;6.808;2023-12-04T01:12:19;4.95;;;3.40;;
62616;SDS011;62539;51.190;6.808;2023-12-04T01:14:46;5.72;;;3.40;;
62616;SDS011;62539;51.190;6.808;2023-12-04T01:17:11;6.35;;;3.47;;
62616;SDS011;62539;51.190;6.808;2023-12-04T01:19:37;4.50;;;3.17;;
62616;SDS011;62539;51.190;6.808;2023-12-04T01:22:02;5.10;;;2.88;;
62616;SDS011;62539;51.190;6.808;2023-12-04T01:24:28;5.93;;;3.10;;
62616;SDS011;62539;51.190;6.808;2023-12-04T01:26:53;5.20;;;3.53;;
62616;SDS011;62539;51.190;6.808;2023-12-04T01:29:18;4.93;;;3.38;;
62616;SDS011;62539;51.190;6.808;2023-12-04T01:31:44;8.18;;;3.05;;
62616;SDS011;62539;51.190;6.808;2023-12-04T01:34:09;5.75;;;3.20;;
62616;SDS011;62539;51.190;6.808;2023-12-04T01:36:35;7.82;;;3.25;;
62616;SDS011;62539;51.190;6.808;2023-12-04T01:39:00;4.68;;;2.60;;
62616;SDS011;62539;51.190;6.808;2023-12-04T01:41:25;5.15;;;3.40;;
62616;SDS011;62539;51.190;6.808;2023-12-04T01:43:51;3.72;;;2.70;;
62616;SDS011;62539;51.190;6.808;2023-12-04T01:46:16;4.45;;;2.75;;
62616;SDS011;62539;51.190;6.808;2023-12-04T01:48:44;6.60;;;3.00;;
62616;SDS011;62539;51.190;6.808;2023-12-04T01:51:12;3.65;;;2.72;;
62616;SDS011;62539;51.190;6.808;2023-12-04T01:53:38;9.38;;;2.50;;
62616;SDS011;62539;51.190;6.808;2023-12-04T01:56:06;5.28;;;3.00;;
62616;SDS011;62539;51.190;6.808;2023-12-04T01:58:32;4.20;;;2.80;;
62616;SDS011;62539;51.190;6.808;2023-12-04T02:00:59;4.03;;;2.78;;
62616;SDS011;62539;51.190;6.808;2023-12-04T02:03:25;4.88;;;3.08;;
62616;SDS011;62539;51.190;6.808;2023-12-04T02:05:51;6.03;;;2.90;;
62616;SDS011;62539;51.190;6.808;2023-12-04T02:08:18;3.80;;;2.83;;
62616;SDS011;62539;51.190;6.808;2023-12-04T02:10:43;7.90;;;2.97;;
62616;SDS011;62539;51.190;6.808;2023-12-04T02:13:09;4.78;;;2.63;;
62616;SDS011;62539;51.190;6.808;2023-12-04T02:15:35;6.70;;;2.97;;
62616;SDS011;62539;51.190;6.808;2023-12-04T02:18:02;7.10;;;3.20;;
62616;SDS011;62539;51.190;6.808;2023-12-04T02:20:35;3.53;;;2.53;;
62616;SDS011;62539;51.190;6.808;2023-12-04T02:23:03;4.18;;;2.75;;
62616;SDS011;62539;51.190;6.808;2023-12-04T02:25:29;3.88;;;3.25;;
62616;SDS011;62539;51.190;6.808;2023-12-04T02:27:56;5.35;;;2.95;;
62616;SDS011;62539;51.190;6.808;2023-12-04T02:30:28;4.55;;;2.90;;
62616;SDS011;62539;51.190;6.808;2023-12-04T02:32:56;3.97;;;2.60;;
62616;SDS011;62539;51.190;6.808;2023-12-04T02:35:26;3.10;;;2.50;;
62616;SDS011;62539;51.190;6.808;2023-12-04T02:37:57;6.43;;;2.33;;
62616;SDS011;62539;51.190;6.808;2023-12-04T02:40:23;3.38;;;2.65;;
62616;SDS011;62539;51.190;6.808;2023-12-04T02:42:50;4.22;;;2.17;;
62616;SDS011;62539;51.190;6.808;2023-12-04T02:45:15;4.95;;;2.72;;
62616;SDS011;62539;51.190;6.808;2023-12-04T02:47:41;4.47;;;2.72;;
62616;SDS011;62539;51.190;6.808;2023-12-04T02:50:06;3.22;;;2.72;;
62616;SDS011;62539;51.190;6.808;2023-12-04T02:52:32;6.68;;;2.58;;
62616;SDS011;62539;51.190;6.808;2023-12-04T02:54:57;4.35;;;2.65;;
62616;SDS011;62539;51.190;6.808;2023-12-04T02:57:23;4.18;;;2.72;;
62616;SDS011;62539;51.190;6.808;2023-12-04T02:59:48;5.47;;;2.60;;
62616;SDS011;62539;51.190;6.808;2023-12-04T03:02:14;3.75;;;2.58;;
62616;SDS011;62539;51.190;6.808;2023-12-04T03:04:39;3.50;;;2.30;;
62616;SDS011;62539;51.190;6.808;2023-12-04T03:07:04;5.88;;;2.47;;
62616;SDS011;62539;51.190;6.808;2023-12-04T03:09:30;3.15;;;2.63;;
62616;SDS011;62539;51.190;6.808;2023-12-04T03:11:55;4.40;;;2.83;;
62616;SDS011;62539;51.190;6.808;2023-12-04T03:14:21;4.50;;;2.55;;
62616;SDS011;62539;51.190;6.808;2023-12-04T03:16:46;3.63;;;2.20;;
62616;SDS011;62539;51.190;6.808;2023-12-04T03:19:11;7.68;;;2.70;;
62616;SDS011;62539;51.190;6.808;2023-12-04T03:21:37;2.95;;;2.40;;
62616;SDS011;62539;51.190;6.808;2023-12-04T03:24:02;5.20;;;2.67;;
62616;SDS011;62539;51.190;6.808;2023-12-04T03:26:28;7.07;;;2.70;;
62616;SDS011;62539;51.190;6.808;2023-12-04T03:28:53;7.85;;;2.30;;
62616;SDS011;62539;51.190;6.808;2023-12-04T03:31:19;2.80;;;2.50;;
62616;SDS011;62539;51.190;6.808;2023-12-04T03:33:46;4.47;;;2.88;;
62616;SDS011;62539;51.190;6.808;2023-12-04T03:36:11;3.38;;;2.30;;
62616;SDS011;62539;51.190;6.808;2023-12-04T03:38:37;4.15;;;2.20;;
62616;SDS011;62539;51.190;6.808;2023-12-04T03:41:02;5.70;;;2.45;;
62616;SDS011;62539;51.190;6.808;2023-12-04T03:43:28;5.63;;;2.65;;
62616;SDS011;62539;51.190;6.808;2023-12-04T03:45:53;2.90;;;2.60;;
62616;SDS011;62539;51.190;6.808;2023-12-04T03:48:19;3.70;;;2.20;;
62616;SDS011;62539;51.190;6.808;2023-12-04T03:50:44;3.95;;;2.67;;
62616;SDS011;62539;51.190;6.808;2023-12-04T03:53:10;2.50;;;2.30;;
62616;SDS011;62539;51.190;6.808;2023-12-04T03:55:35;2.38;;;2.17;;
62616;SDS011;62539;51.190;6.808;2023-12-04T03:58:00;2.88;;;2.25;;
62616;SDS011;62539;51.190;6.808;2023-12-04T04:00:26;7.53;;;2.80;;
62616;SDS011;62539;51.190;6.808;2023-12-04T04:02:51;2.53;;;2.28;;
62616;SDS011;62539;51.190;6.808;2023-12-04T04:05:17;2.20;;;2.00;;
62616;SDS011;62539;51.190;6.808;2023-12-04T04:07:42;2.60;;;2.05;;
62616;SDS011;62539;51.190;6.808;2023-12-04T04:10:08;3.78;;;2.15;;
62616;SDS011;62539;51.190;6.808;2023-12-04T04:12:34;2.47;;;1.83;;
62616;SDS011;62539;51.190;6.808;2023-12-04T04:14:59;2.83;;;2.05;;
62616;SDS011;62539;51.190;6.808;2023-12-04T04:17:25;2.63;;;2.13;;
62616;SDS011;62539;51.190;6.808;2023-12-04T04:19:52;3.42;;;1.83;;
62616;SDS011;62539;51.190;6.808;2023-12-04T04:22:19;5.28;;;2.60;;
62616;SDS011;62539;51.190;6.808;2023-12-04T04:24:46;4.85;;;2.30;;
62616;SDS011;62539;51.190;6.808;2023-12-04T04:27:12;3.22;;;2.20;;
62616;SDS011;62539;51.190;6.808;2023-12-04T04:29:37;5.55;;;2.28;;
62616;SDS011;62539;51.190;6.808;2023-12-04T04:32:03;3.28;;;2.45;;
62616;SDS011;62539;51.190;6.808;2023-12-04T04:34:29;2.70;;;2.20;;
62616;SDS011;62539;51.190;6.808;2023-12-04T04:36:54;2.83;;;2.00;;
62616;SDS011;62539;51.190;6.808;2023-12-04T04:39:20;4.38;;;2.00;;
62616;SDS011;62539;51.190;6.808;2023-12-04T04:41:45;4.35;;;2.00;;
62616;SDS011;62539;51.190;6.808;2023-12-04T04:44:10;4.30;;;2.10;;
62616;SDS011;62539;51.190;6.808;2023-12-04T04:46:36;3.90;;;2.40;;
62616;SDS011;62539;51.190;6.808;2023-12-04T04:49:01;5.35;;;2.40;;
62616;SDS011;62539;51.190;6.808;2023-12-04T04:51:31;3.15;;;2.22;;
62616;SDS011;62539;51.190;6.808;2023-12-04T04:53:57;4.32;;;2.05;;
62616;SDS011;62539;51.190;6.808;2023-12-04T04:56:23;3.08;;;2.17;;
62616;SDS011;62539;51.190;6.808;2023-12-04T04:58:48;3.42;;;2.20;;
62616;SDS011;62539;51.190;6.808;2023-12-04T05:01:14;2.55;;;1.98;;
62616;SDS011;62539;51.190;6.808;2023-12-04T05:03:39;3.08;;;1.95;;
62616;SDS011;62539;51.190;6.808;2023-12-04T05:06:05;2.75;;;2.10;;
62616;SDS011;62539;51.190;6.808;2023-12-04T05:08:30;4.57;;;2.15;;
62616;SDS011;62539;51.190;6.808;2023-12-04T05:10:56;2.42;;;2.00;;
62616;SDS011;62539;51.190;6.808;2023-12-04T05:13:21;2.70;;;2.03;;
62616;SDS011;62539;51.190;6.808;2023-12-04T05:15:47;2.50;;;2.20;;
62616;SDS011;62539;51.190;6.808;2023-12-04T05:18:12;2.85;;;2.22;;
62616;SDS011;62539;51.190;6.808;2023-12-04T05:20:38;3.13;;;2.10;;
62616;SDS011;62539;51.190;6.808;2023-12-04T05:23:03;2.88;;;2.20;;
62616;SDS011;62539;51.190;6.808;2023-12-04T05:25:29;3.22;;;2.28;;
62616;SDS011;62539;51.190;6.808;2023-12-04T05:27:54;3.65;;;2.35;;
62616;SDS011;62539;51.190;6.808;2023-12-04T05:30:19;3.22;;;2.20;;
62616;SDS011;62539;51.190;6.808;2023-12-04T05:32:45;2.47;;;1.85;;
62616;SDS011;62539;51.190;6.808;2023-12-04T05:35:10;2.80;;;2.00;;
62616;SDS011;62539;51.190;6.808;2023-12-04T05:37:36;2.72;;;1.95;;
62616;SDS011;62539;51.190;6.808;2023-12-04T05:40:01;3.28;;;2.00;;
62616;SDS011;62539;51.190;6.808;2023-12-04T05:42:29;6.05;;;2.17;;
62616;SDS011;62539;51.190;6.808;2023-12-04T05:44:54;2.50;;;1.80;;
62616;SDS011;62539;51.190;6.808;2023-12-04T05:47:22;2.30;;;2.10;;
62616;SDS011;62539;51.190;6.808;2023-12-04T05:49:47;2.33;;;2.00;;
62616;SDS011;62539;51.190;6.808;2023-12-04T05:52:13;3.05;;;1.70;;
62616;SDS011;62539;51.190;6.808;2023-12-04T05:54:38;2.45;;;1.92;;
62616;SDS011;62539;51.190;6.808;2023-12-04T05:57:04;3.58;;;1.80;;
62616;SDS011;62539;51.190;6.808;2023-12-04T05:59:30;3.22;;;2.25;;
62616;SDS011;62539;51.190;6.808;2023-12-04T06:01:55;4.38;;;2.25;;
62616;SDS011;62539;51.190;6.808;2023-12-04T06:04:21;2.13;;;1.88;;
62616;SDS011;62539;51.190;6.808;2023-12-04T06:06:46;2.58;;;1.75;;
62616;SDS011;62539;51.190;6.808;2023-12-04T06:09:11;2.17;;;1.85;;
62616;SDS011;62539;51.190;6.808;2023-12-04T06:11:37;4.53;;;2.00;;
62616;SDS011;62539;51.190;6.808;2023-12-04T06:14:02;2.13;;;1.67;;
62616;SDS011;62539;51.190;6.808;2023-12-04T06:16:28;3.65;;;1.70;;
62616;SDS011;62539;51.190;6.808;2023-12-04T06:18:53;3.70;;;1.75;;
62616;SDS011;62539;51.190;6.808;2023-12-04T06:21:19;2.72;;;1.90;;
62616;SDS011;62539;51.190;6.808;2023-12-04T06:23:44;3.03;;;2.17;;
62616;SDS011;62539;51.190;6.808;2023-12-04T06:26:10;2.78;;;1.90;;
62616;SDS011;62539;51.190;6.808;2023-12-04T06:28:37;10.90;;;2.00;;
62616;SDS011;62539;51.190;6.808;2023-12-04T06:31:03;2.15;;;1.70;;
62616;SDS011;62539;51.190;6.808;2023-12-04T06:33:29;3.63;;;2.10;;
62616;SDS011;62539;51.190;6.808;2023-12-04T06:35:55;3.17;;;2.00;;
62616;SDS011;62539;51.190;6.808;2023-12-04T06:38:22;2.05;;;1.70;;
62616;SDS011;62539;51.190;6.808;2023-12-04T06:40:50;3.67;;;2.30;;
62616;SDS011;62539;51.190;6.808;2023-12-04T06:43:16;2.33;;;1.80;;
62616;SDS011;62539;51.190;6.808;2023-12-04T06:45:43;2.72;;;1.73;;
62616;SDS011;62539;51.190;6.808;2023-12-04T06:48:11;3.10;;;2.00;;
62616;SDS011;62539;51.190;6.808;2023-12-04T06:50:38;6.85;;;1.63;;
62616;SDS011;62539;51.190;6.808;2023-12-04T06:53:05;2.83;;;1.98;;
62616;SDS011;62539;51.190;6.808;2023-12-04T06:55:32;2.42;;;2.00;;
62616;SDS011;62539;51.190;6.808;2023-12-04T06:58:00;2.78;;;1.88;;
62616;SDS011;62539;51.190;6.808;2023-12-04T07:00:25;2.53;;;1.88;;
62616;SDS011;62539;51.190;6.808;2023-12-04T07:02:52;4.97;;;1.83;;
62616;SDS011;62539;51.190;6.808;2023-12-04T07:05:20;2.72;;;1.95;;
62616;SDS011;62539;51.190;6.808;2023-12-04T07:07:46;13.75;;;2.33;;
62616;SDS011;62539;51.190;6.808;2023-12-04T07:10:12;16.83;;;1.88;;
62616;SDS011;62539;51.190;6.808;2023-12-04T07:12:40;9.70;;;2.17;;
62616;SDS011;62539;51.190;6.808;2023-12-04T07:15:07;8.70;;;2.63;;
62616;SDS011;62539;51.190;6.808;2023-12-04T07:17:34;6.05;;;2.45;;
62616;SDS011;62539;51.190;6.808;2023-12-04T07:20:04;3.72;;;2.30;;
62616;SDS011;62539;51.190;6.808;2023-12-04T07:22:33;6.70;;;2.90;;
62616;SDS011;62539;51.190;6.808;2023-12-04T07:24:59;5.70;;;2.67;;
62616;SDS011;62539;51.190;6.808;2023-12-04T07:27:25;5.30;;;2.75;;
62616;SDS011;62539;51.190;6.808;2023-12-04T07:29:51;7.10;;;2.88;;
62616;SDS011;62539;51.190;6.808;2023-12-04T07:32:17;7.25;;;2.85;;
62616;SDS011;62539;51.190;6.808;2023-12-04T07:34:46;5.90;;;2.40;;
62616;SDS011;62539;51.190;6.808;2023-12-04T07:37:12;6.18;;;2.67;;
62616;SDS011;62539;51.190;6.808;2023-12-04T07:39:38;9.55;;;2.92;;
62616;SDS011;62539;51.190;6.808;2023-12-04T07:42:03;7.40;;;3.20;;
62616;SDS011;62539;51.190;6.808;2023-12-04T07:44:29;4.93;;;2.70;;
62616;SDS011;62539;51.190;6.808;2023-12-04T07:46:55;5.28;;;2.80;;
62616;SDS011;62539;51.190;6.808;2023-12-04T07:49:20;4.25;;;2.55;;
62616;SDS011;62539;51.190;6.808;2023-12-04T07:51:45;5.32;;;2.90;;
62616;SDS011;62539;51.190;6.808;2023-12-04T07:54:11;7.75;;;2.95;;
62616;SDS011;62539;51.190;6.808;2023-12-04T07:56:40;9.25;;;3.03;;
62616;SDS011;62539;51.190;6.808;2023-12-04T07:59:07;13.48;;;3.58;;
62616;SDS011;62539;51.190;6.808;2023-12-04T08:01:33;8.00;;;3.28;;
62616;SDS011;62539;51.190;6.808;2023-12-04T08:03:59;10.55;;;3.20;;
62616;SDS011;62539;51.190;6.808;2023-12-04T08:06:25;10.45;;;3.67;;
62616;SDS011;62539;51.190;6.808;2023-12-04T08:08:50;8.40;;;3.30;;
62616;SDS011;62539;51.190;6.808;2023-12-04T08:11:16;12.00;;;3.20;;
62616;SDS011;62539;51.190;6.808;2023-12-04T08:13:42;17.40;;;4.00;;
62616;SDS011;62539;51.190;6.808;2023-12-04T08:16:13;9.80;;;3.83;;
62616;SDS011;62539;51.190;6.808;2023-12-04T08:18:40;11.82;;;3.65;;
62616;SDS011;62539;51.190;6.808;2023-12-04T08:21:06;9.07;;;3.67;;
62616;SDS011;62539;51.190;6.808;2023-12-04T08:23:31;9.50;;;3.67;;
62616;SDS011;62539;51.190;6.808;2023-12-04T08:25:57;12.40;;;3.58;;
62616;SDS011;62539;51.190;6.808;2023-12-04T08:28:22;9.93;;;3.60;;
62616;SDS011;62539;51.190;6.808;2023-12-04T08:30:48;6.72;;;3.22;;
62616;SDS011;62539;51.190;6.808;2023-12-04T08:33:14;9.20;;;3.05;;
62616;SDS011;62539;51.190;6.808;2023-12-04T08:35:39;15.55;;;3.67;;
62616;SDS011;62539;51.190;6.808;2023-12-04T08:38:05;7.85;;;2.95;;
62616;SDS011;62539;51.190;6.808;2023-12-04T08:40:31;11.45;;;3.28;;
62616;SDS011;62539;51.190;6.808;2023-12-04T08:42:57;10.77;;;2.70;;
62616;SDS011;62539;51.190;6.808;2023-12-04T08:45:22;6.55;;;2.80;;
62616;SDS011;62539;51.190;6.808;2023-12-04T08:47:47;7.60;;;3.08;;
62616;SDS011;62539;51.190;6.808;2023-12-04T08:50:14;9.32;;;3.45;;
62616;SDS011;62539;51.190;6.808;2023-12-04T08:52:40;6.00;;;2.63;;
62616;SDS011;62539;51.190;6.808;2023-12-04T08:55:06;13.48;;;2.65;;
62616;SDS011;62539;51.190;6.808;2023-12-04T08:57:32;13.02;;;2.92;;
62616;SDS011;62539;51.190;6.808;2023-12-04T08:59:59;23.80;;;3.00;;
62616;SDS011;62539;51.190;6.808;2023-12-04T09:02:25;16.70;;;3.20;;
62616;SDS011;62539;51.190;6.808;2023-12-04T09:04:52;5.72;;;2.88;;
62616;SDS011;62539;51.190;6.808;2023-12-04T09:07:19;15.38;;;2.72;;
62616;SDS011;62539;51.190;6.808;2023-12-04T09:09:45;10.05;;;3.35;;
62616;SDS011;62539;51.190;6.808;2023-12-04T09:12:11;12.77;;;3.83;;
62616;SDS011;62539;51.190;6.808;2023-12-04T09:14:36;15.90;;;3.92;;
62616;SDS011;62539;51.190;6.808;2023-12-04T09:17:02;7.72;;;3.25;;
62616;SDS011;62539;51.190;6.808;2023-12-04T09:19:28;6.88;;;2.97;;
62616;SDS011;62539;51.190;6.808;2023-12-04T09:21:54;12.02;;;3.33;;
62616;SDS011;62539;51.190;6.808;2023-12-04T09:24:20;9.15;;;3.47;;
62616;SDS011;62539;51.190;6.808;2023-12-04T09:26:45;11.20;;;3.00;;
62616;SDS011;62539;51.190;6.808;2023-12-04T09:29:11;11.95;;;3.15;;
62616;SDS011;62539;51.190;6.808;2023-12-04T09:31:37;11.27;;;3.35;;
62616;SDS011;62539;51.190;6.808;2023-12-04T09:34:03;9.68;;;4.22;;
62616;SDS011;62539;51.190;6.808;2023-12-04T09:36:28;11.20;;;4.50;;
62616;SDS011;62539;51.190;6.808;2023-12-04T09:38:55;27.75;;;4.78;;
62616;SDS011;62539;51.190;6.808;2023-12-04T09:41:21;8.48;;;3.55;;
62616;SDS011;62539;51.190;6.808;2023-12-04T09:43:46;4.97;;;3.40;;
62616;SDS011;62539;51.190;6.808;2023-12-04T09:46:12;11.23;;;3.40;;
62616;SDS011;62539;51.190;6.808;2023-12-04T09:48:41;5.88;;;2.83;;
62616;SDS011;62539;51.190;6.808;2023-12-04T09:51:08;10.88;;;3.25;;
62616;SDS011;62539;51.190;6.808;2023-12-04T09:53:35;7.07;;;3.05;;
62616;SDS011;62539;51.190;6.808;2023-12-04T09:56:02;4.95;;;2.92;;
62616;SDS011;62539;51.190;6.808;2023-12-04T09:58:29;10.32;;;3.20;;
62616;SDS011;62539;51.190;6.808;2023-12-04T10:00:57;7.40;;;3.00;;
62616;SDS011;62539;51.190;6.808;2023-12-04T10:03:26;5.22;;;2.67;;
62616;SDS011;62539;51.190;6.808;2023-12-04T10:05:51;10.65;;;3.10;;
62616;SDS011;62539;51.190;6.808;2023-12-04T10:08:19;5.07;;;2.67;;
62616;SDS011;62539;51.190;6.808;2023-12-04T10:10:45;8.10;;;2.92;;
62616;SDS011;62539;51.190;6.808;2023-12-04T10:13:11;5.53;;;2.30;;
62616;SDS011;62539;51.190;6.808;2023-12-04T10:15:48;6.47;;;2.67;;
62616;SDS011;62539;51.190;6.808;2023-12-04T10:18:28;4.63;;;2.65;;
62616;SDS011;62539;51.190;6.808;2023-12-04T10:20:57;8.40;;;3.05;;
62616;SDS011;62539;51.190;6.808;2023-12-04T10:23:43;5.75;;;2.33;;
62616;SDS011;62539;51.190;6.808;2023-12-04T10:26:14;11.63;;;2.50;;
62616;SDS011;62539;51.190;6.808;2023-12-04T10:28:41;8.07;;;2.38;;
62616;SDS011;62539;51.190;6.808;2023-12-04T10:31:25;6.72;;;2.47;;
62616;SDS011;62539;51.190;6.808;2023-12-04T10:33:50;6.13;;;2.80;;
62616;SDS011;62539;51.190;6.808;2023-12-04T10:36:16;6.78;;;3.03;;
62616;SDS011;62539;51.190;6.808;2023-12-04T10:38:43;5.90;;;2.72;;
62616;SDS011;62539;51.190;6.808;2023-12-04T10:41:12;9.52;;;2.80;;
62616;SDS011;62539;51.190;6.808;2023-12-04T10:43:49;13.50;;;3.20;;
62616;SDS011;62539;51.190;6.808;2023-12-04T10:46:14;22.85;;;3.22;;
62616;SDS011;62539;51.190;6.808;2023-12-04T10:48:44;10.05;;;3.00;;
62616;SDS011;62539;51.190;6.808;2023-12-04T10:51:11;13.48;;;3.50;;
62616;SDS011;62539;51.190;6.808;2023-12-04T10:53:37;12.43;;;3.00;;
62616;SDS011;62539;51.190;6.808;2023-12-04T10:56:08;10.88;;;3.00;;
62616;SDS011;62539;51.190;6.808;2023-12-04T11:01:06;7.70;;;2.47;;
62616;SDS011;62539;51.190;6.808;2023-12-04T11:03:55;18.55;;;3.10;;
62616;SDS011;62539;51.190;6.808;2023-12-04T11:06:23;6.95;;;2.60;;
62616;SDS011;62539;51.190;6.808;2023-12-04T11:08:53;10.87;;;2.47;;
62616;SDS011;62539;51.190;6.808;2023-12-04T11:11:26;13.40;;;2.67;;
62616;SDS011;62539;51.190;6.808;2023-12-04T11:14:04;9.43;;;2.88;;
62616;SDS011;62539;51.190;6.808;2023-12-04T11:16:48;6.60;;;2.40;;
62616;SDS011;62539;51.190;6.808;2023-12-04T11:22:09;7.25;;;2.45;;
62616;SDS011;62539;51.190;6.808;2023-12-04T11:24:39;10.27;;;2.85;;
62616;SDS011;62539;51.190;6.808;2023-12-04T11:27:06;11.52;;;2.70;;
62616;SDS011;62539;51.190;6.808;2023-12-04T11:29:35;6.03;;;2.63;;
62616;SDS011;62539;51.190;6.808;2023-12-04T11:32:07;7.65;;;2.85;;
62616;SDS011;62539;51.190;6.808;2023-12-04T11:34:33;5.97;;;2.60;;
62616;SDS011;62539;51.190;6.808;2023-12-04T11:37:00;4.57;;;2.30;;
62616;SDS011;62539;51.190;6.808;2023-12-04T11:39:27;5.22;;;2.30;;
62616;SDS011;62539;51.190;6.808;2023-12-04T11:41:53;7.68;;;2.67;;
62616;SDS011;62539;51.190;6.808;2023-12-04T11:44:18;4.40;;;2.03;;
62616;SDS011;62539;51.190;6.808;2023-12-04T11:46:55;7.70;;;2.13;;
62616;SDS011;62539;51.190;6.808;2023-12-04T11:51:56;10.00;;;2.58;;
62616;SDS011;62539;51.190;6.808;2023-12-04T11:54:25;6.43;;;2.13;;
62616;SDS011;62539;51.190;6.808;2023-12-04T11:56:57;7.25;;;2.58;;
62616;SDS011;62539;51.190;6.808;2023-12-04T11:59:47;7.78;;;2.50;;
62616;SDS011;62539;51.190;6.808;2023-12-04T12:02:13;10.32;;;2.50;;
62616;SDS011;62539;51.190;6.808;2023-12-04T12:04:40;3.92;;;2.22;;
62616;SDS011;62539;51.190;6.808;2023-12-04T12:07:05;5.00;;;2.78;;
62616;SDS011;62539;51.190;6.808;2023-12-04T12:09:34;4.57;;;2.35;;
62616;SDS011;62539;51.190;6.808;2023-12-04T12:12:00;10.43;;;2.28;;
62616;SDS011;62539;51.190;6.808;2023-12-04T12:14:30;4.65;;;2.30;;
62616;SDS011;62539;51.190;6.808;2023-12-04T12:16:59;9.15;;;2.30;;
62616;SDS011;62539;51.190;6.808;2023-12-04T12:19:29;4.43;;;2.35;;
62616;SDS011;62539;51.190;6.808;2023-12-04T12:21:54;6.63;;;2.03;;
62616;SDS011;62539;51.190;6.808;2023-12-04T12:24:20;12.55;;;2.67;;
62616;SDS011;62539;51.190;6.808;2023-12-04T12:26:46;6.22;;;2.28;;
62616;SDS011;62539;51.190;6.808;2023-12-04T12:29:12;4.00;;;2.33;;
62616;SDS011;62539;51.190;6.808;2023-12-04T12:31:37;5.03;;;2.13;;
62616;SDS011;62539;51.190;6.808;2023-12-04T12:34:02;4.47;;;2.15;;
62616;SDS011;62539;51.190;6.808;2023-12-04T12:36:28;7.63;;;2.20;;
62616;SDS011;62539;51.190;6.808;2023-12-04T12:38:57;5.68;;;1.92;;
62616;SDS011;62539;51.190;6.808;2023-12-04T12:41:25;5.53;;;2.30;;
62616;SDS011;62539;51.190;6.808;2023-12-04T12:43:51;5.63;;;2.03;;
62616;SDS011;62539;51.190;6.808;2023-12-04T12:46:18;6.97;;;2.25;;
62616;SDS011;62539;51.190;6.808;2023-12-04T12:48:44;9.00;;;2.15;;
62616;SDS011;62539;51.190;6.808;2023-12-04T12:51:09;3.50;;;2.10;;
62616;SDS011;62539;51.190;6.808;2023-12-04T12:53:36;5.20;;;2.65;;
62616;SDS011;62539;51.190;6.808;2023-12-04T12:56:02;3.67;;;2.13;;
62616;SDS011;62539;51.190;6.808;2023-12-04T12:58:29;4.45;;;2.20;;
62616;SDS011;62539;51.190;6.808;2023-12-04T13:00:54;5.35;;;2.10;;
62616;SDS011;62539;51.190;6.808;2023-12-04T13:03:21;6.70;;;2.45;;
62616;SDS011;62539;51.190;6.808;2023-12-04T13:05:47;4.03;;;2.17;;
62616;SDS011;62539;51.190;6.808;2023-12-04T13:08:12;8.95;;;2.33;;
62616;SDS011;62539;51.190;6.808;2023-12-04T13:10:38;2.80;;;1.88;;
62616;SDS011;62539;51.190;6.808;2023-12-04T13:13:09;4.32;;;1.80;;
62616;SDS011;62539;51.190;6.808;2023-12-04T13:15:36;3.80;;;1.90;;
62616;SDS011;62539;51.190;6.808;2023-12-04T13:18:01;8.77;;;1.75;;
62616;SDS011;62539;51.190;6.808;2023-12-04T13:20:28;4.75;;;2.05;;
62616;SDS011;62539;51.190;6.808;2023-12-04T13:22:53;4.00;;;1.80;;
62616;SDS011;62539;51.190;6.808;2023-12-04T13:25:19;4.65;;;2.10;;
62616;SDS011;62539;51.190;6.808;2023-12-04T13:27:45;5.28;;;1.90;;
62616;SDS011;62539;51.190;6.808;2023-12-04T13:30:11;3.50;;;1.50;;
62616;SDS011;62539;51.190;6.808;2023-12-04T13:32:37;3.30;;;1.80;;
62616;SDS011;62539;51.190;6.808;2023-12-04T13:35:03;3.42;;;1.70;;
62616;SDS011;62539;51.190;6.808;2023-12-04T13:37:31;2.83;;;1.88;;
62616;SDS011;62539;51.190;6.808;2023-12-04T13:39:58;3.17;;;1.70;;
62616;SDS011;62539;51.190;6.808;2023-12-04T13:42:27;3.15;;;2.10;;
62616;SDS011;62539;51.190;6.808;2023-12-04T13:45:12;2.22;;;1.40;;
62616;SDS011;62539;51.190;6.808;2023-12-04T13:47:38;5.70;;;2.10;;
62616;SDS011;62539;51.190;6.808;2023-12-04T13:50:07;3.25;;;2.05;;
62616;SDS011;62539;51.190;6.808;2023-12-04T13:52:36;4.28;;;2.08;;
62616;SDS011;62539;51.190;6.808;2023-12-04T13:55:03;3.75;;;1.88;;
62616;SDS011;62539;51.190;6.808;2023-12-04T13:57:43;10.02;;;2.10;;
62616;SDS011;62539;51.190;6.808;2023-12-04T14:02:48;4.63;;;1.60;;
62616;SDS011;62539;51.190;6.808;2023-12-04T14:05:18;2.35;;;1.60;;
62616;SDS011;62539;51.190;6.808;2023-12-04T14:07:48;1.60;;;1.23;;
62616;SDS011;62539;51.190;6.808;2023-12-04T14:10:13;6.30;;;1.63;;
62616;SDS011;62539;51.190;6.808;2023-12-04T14:12:39;2.72;;;1.70;;
62616;SDS011;62539;51.190;6.808;2023-12-04T14:15:06;3.22;;;1.70;;
62616;SDS011;62539;51.190;6.808;2023-12-04T14:17:32;3.33;;;1.98;;
62616;SDS011;62539;51.190;6.808;2023-12-04T14:19:58;2.50;;;1.48;;
62616;SDS011;62539;51.190;6.808;2023-12-04T14:22:24;3.38;;;1.40;;
62616;SDS011;62539;51.190;6.808;2023-12-04T14:24:50;3.70;;;1.48;;
62616;SDS011;62539;51.190;6.808;2023-12-04T14:27:16;2.80;;;1.60;;
62616;SDS011;62539;51.190;6.808;2023-12-04T14:29:41;5.20;;;1.77;;
62616;SDS011;62539;51.190;6.808;2023-12-04T14:32:07;3.10;;;1.50;;
62616;SDS011;62539;51.190;6.808;2023-12-04T14:34:32;3.60;;;1.80;;
62616;SDS011;62539;51.190;6.808;2023-12-04T14:36:58;2.53;;;1.40;;
62616;SDS011;62539;51.190;6.808;2023-12-04T14:39:23;1.90;;;1.40;;
62616;SDS011;62539;51.190;6.808;2023-12-04T14:41:49;2.65;;;1.50;;
62616;SDS011;62539;51.190;6.808;2023-12-04T14:44:14;3.45;;;1.60;;
62616;SDS011;62539;51.190;6.808;2023-12-04T14:46:40;5.82;;;1.60;;
62616;SDS011;62539;51.190;6.808;2023-12-04T14:49:06;9.93;;;1.65;;
62616;SDS011;62539;51.190;6.808;2023-12-04T14:51:31;6.05;;;1.60;;
62616;SDS011;62539;51.190;6.808;2023-12-04T14:53:57;2.72;;;1.38;;